Time;durP1;ratioP1;P1;durP2;ratioP2;P2;SDS_P1;SDS_P2;PMS_P1;PMS_P2;Temp;Humidity;BMP_temperature;BMP_pressure;BME280_temperature;BME280_humidity;BME280_pressure;Samples;Min_cycle;Max_cycle;Signal;HPM_P1;HPM_P2
2022/10/10 00:00:31;;;;;;;4.57;2.57;;;;;;;9.25;56.01;101233.53;5090249;28;20042;-30
2022/10/10 00:02:57;;;;;;;4.90;2.45;;;;;;;9.22;56.04;101233.50;5089436;28;20288;-30
2022/10/10 00:05:25;;;;;;;4.53;2.50;;;;;;;9.19;56.08;101222.97;5104344;28;20064;-30
2022/10/10 00:07:50;;;;;;;4.18;2.13;;;;;;;9.15;55.99;101219.44;5113319;28;20027;-30
2022/10/10 00:10:16;;;;;;;3.60;2.22;;;;;;;9.10;56.01;101222.03;5108447;28;20035;-30
2022/10/10 00:12:41;;;;;;;3.95;2.03;;;;;;;9.08;56.23;101218.53;5101426;28;20149;-30
2022/10/10 00:15:07;;;;;;;3.33;2.00;;;;;;;9.05;56.37;101218.50;5076470;28;20032;-30
2022/10/10 00:17:32;;;;;;;3.80;2.10;;;;;;;9.01;56.22;101211.47;5087834;28;20033;-30
2022/10/10 00:19:58;;;;;;;3.93;2.00;;;;;;;8.98;56.18;101211.44;5102925;28;20024;-30
2022/10/10 00:22:23;;;;;;;4.15;2.33;;;;;;;8.93;56.19;101208.78;5093337;28;20266;-30
2022/10/10 00:24:48;;;;;;;5.55;2.20;;;;;;;8.90;56.07;101200.88;5106183;28;20026;-30
2022/10/10 00:27:14;;;;;;;4.22;2.20;;;;;;;8.87;56.24;101202.59;5103099;28;20107;-30
2022/10/10 00:29:42;;;;;;;3.92;2.47;;;;;;;8.84;56.27;101204.34;5080971;28;20386;-30
2022/10/10 00:32:07;;;;;;;5.30;2.40;;;;;;;8.80;56.22;101207.81;5092721;28;20020;-30
2022/10/10 00:34:33;;;;;;;6.20;2.23;;;;;;;8.78;56.37;101204.31;5095686;28;20034;-30
2022/10/10 00:37:01;;;;;;;4.07;2.50;;;;;;;8.73;56.23;101206.00;5109164;28;20264;-31
2022/10/10 00:39:26;;;;;;;3.75;2.47;;;;;;;8.68;56.14;101198.09;5103634;28;20032;-30
2022/10/10 00:41:52;;;;;;;5.60;2.50;;;;;;;8.65;56.32;101205.09;5104323;28;20035;-30
2022/10/10 00:44:17;;;;;;;5.40;2.83;;;;;;;8.58;56.71;101197.13;5103485;28;20027;-30
2022/10/10 00:46:42;;;;;;;5.50;2.60;;;;;;;8.55;56.44;101197.13;5103999;28;20478;-30
2022/10/10 00:49:14;;;;;;;6.38;2.63;;;;;;;8.51;56.74;101197.94;5100939;28;20050;-29
2022/10/10 00:51:51;;;;;;;4.25;2.17;;;;;;;8.48;56.61;101193.53;5070864;28;20028;-30
2022/10/10 00:54:18;;;;;;;4.07;2.42;;;;;;;8.43;56.60;101189.09;5091639;28;20461;-30
2022/10/10 00:56:48;;;;;;;3.95;2.40;;;;;;;8.40;56.60;101187.31;5104001;28;20049;-30
2022/10/10 00:59:14;;;;;;;4.43;2.60;;;;;;;8.39;56.72;101189.94;5100883;28;20031;-30
2022/10/10 01:01:39;;;;;;;3.60;2.30;;;;;;;8.34;56.61;101184.66;5109029;28;20038;-30
2022/10/10 01:04:05;;;;;;;5.63;2.63;;;;;;;8.31;56.81;101187.25;5079489;28;20027;-30
2022/10/10 01:06:32;;;;;;;5.25;2.30;;;;;;;8.27;56.93;101174.97;5075229;28;20092;-29
2022/10/10 01:08:58;;;;;;;4.25;2.40;;;;;;;8.24;56.99;101178.47;5099246;28;20304;-30
2022/10/10 01:11:38;;;;;;;5.70;2.85;;;;;;;8.23;56.89;101174.03;5112182;28;20213;-29
2022/10/10 01:14:49;;;;;;;4.57;2.45;;;;;;;8.19;56.95;101167.00;5108298;28;20035;-30
2022/10/10 01:17:53;;;;;;;3.53;2.25;;;;;;;8.14;57.05;101173.97;5056334;28;20043;-30
2022/10/10 01:20:40;;;;;;;3.45;2.22;;;;;;;8.09;56.86;101171.28;5100184;28;20035;-30
2022/10/10 01:23:34;;;;;;;4.40;2.28;;;;;;;8.05;57.11;101162.53;5101004;28;20467;-30
2022/10/10 01:26:24;;;;;;;3.22;2.08;;;;;;;8.02;56.81;101165.13;5090096;28;20031;-30
2022/10/10 01:28:55;;;;;;;3.13;2.38;;;;;;;7.98;57.04;101151.94;5100591;28;20024;-30
2022/10/10 01:31:23;;;;;;;4.90;2.67;;;;;;;7.95;56.85;101147.53;5100065;28;20024;-30
2022/10/10 01:34:21;;;;;;;4.72;2.42;;;;;;;7.93;57.12;101149.25;5074645;28;20386;-30
2022/10/10 01:37:16;;;;;;;4.10;2.63;;;;;;;7.89;57.04;101136.94;5101904;28;20228;-30
2022/10/10 01:39:48;;;;;;;3.25;2.40;;;;;;;7.83;57.19;101130.78;5106688;28;20019;-30
2022/10/10 01:42:19;;;;;;;5.20;2.67;;;;;;;7.81;57.24;101129.88;5104191;28;20033;-30
2022/10/10 01:44:47;;;;;;;3.88;2.40;;;;;;;7.78;57.43;101134.22;5088425;28;20024;-30
2022/10/10 01:47:13;;;;;;;3.83;2.17;;;;;;;7.74;57.33;101130.69;5092996;28;20059;-30
2022/10/10 01:49:42;;;;;;;5.38;2.47;;;;;;;7.73;57.45;101125.44;5105591;28;20047;-30
2022/10/10 01:52:21;;;;;;;5.03;2.42;;;;;;;7.69;57.44;101122.78;5096470;28;20073;-30
2022/10/10 01:55:10;;;;;;;4.75;2.85;;;;;;;7.66;57.38;101122.75;5101351;28;20072;-30
2022/10/10 01:58:01;;;;;;;3.88;2.30;;;;;;;7.64;57.68;101128.84;5058701;28;20040;-29
2022/10/10 02:00:27;;;;;;;5.50;2.28;;;;;;;7.61;57.90;101132.31;5101223;28;20413;-30
2022/10/10 02:03:07;;;;;;;3.53;2.30;;;;;;;7.57;57.63;101123.53;5083919;28;20024;-30
2022/10/10 02:05:53;;;;;;;3.92;2.40;;;;;;;7.56;57.73;101123.50;5088809;28;20035;-30
2022/10/10 02:08:32;;;;;;;4.93;2.90;;;;;;;7.53;57.66;101119.09;5096872;28;20074;-29
2022/10/10 02:11:04;;;;;;;4.47;2.95;;;;;;;7.50;57.73;101113.81;5081751;28;20051;-29
2022/10/10 02:13:50;;;;;;;4.20;2.30;;;;;;;7.47;57.67;101105.91;5108835;28;20030;-30
2022/10/10 02:16:19;;;;;;;3.13;2.30;;;;;;;7.44;57.57;101106.75;5072711;28;20069;-30
2022/10/10 02:18:46;;;;;;;4.90;2.70;;;;;;;7.42;57.67;101100.63;5083603;28;20034;-30
2022/10/10 02:21:12;;;;;;;4.28;2.78;;;;;;;7.40;57.59;101101.47;5079993;28;20023;-30
2022/10/10 02:23:40;;;;;;;4.10;2.60;;;;;;;7.38;57.42;101104.09;5085246;28;20031;-30
2022/10/10 02:26:05;;;;;;;3.80;2.28;;;;;;;7.37;57.73;101101.44;5086432;28;20469;-30
2022/10/10 02:28:47;;;;;;;4.90;2.50;;;;;;;7.35;57.89;101101.41;5101843;28;20026;-30
2022/10/10 02:31:19;;;;;;;4.65;2.47;;;;;;;7.32;57.88;101099.66;5086100;28;20059;-30
2022/10/10 02:33:55;;;;;;;3.53;2.40;;;;;;;7.30;57.71;101090.88;5083505;28;20115;-30
2022/10/10 02:36:21;;;;;;;6.00;3.10;;;;;;;7.28;57.98;101092.59;5075801;28;20474;-30
2022/10/10 02:38:47;;;;;;;6.25;3.63;;;;;;;7.27;57.89;101101.31;5082071;28;20032;-30
2022/10/10 02:41:15;;;;;;;5.80;2.97;;;;;;;7.24;58.27;101098.66;5091967;28;20090;-30
2022/10/10 02:43:48;;;;;;;5.00;3.10;;;;;;;7.23;57.96;101089.03;5076286;28;20409;-30
2022/10/10 02:46:14;;;;;;;4.15;2.60;;;;;;;7.23;58.42;101089.03;5074827;28;20024;-30
2022/10/10 02:48:39;;;;;;;4.60;2.40;;;;;;;7.20;58.05;101089.00;5104091;28;20088;-30
2022/10/10 02:51:05;;;;;;;4.50;2.25;;;;;;;7.21;58.00;101079.38;5084077;28;20034;-29
2022/10/10 02:53:30;;;;;;;4.03;2.75;;;;;;;7.19;58.39;101084.63;5085736;28;20355;-30
2022/10/10 02:55:56;;;;;;;4.28;2.65;;;;;;;7.18;58.58;101067.13;5094301;28;20556;-29
2022/10/10 02:58:22;;;;;;;4.80;2.65;;;;;;;7.15;58.28;101065.34;5090465;28;20035;-30
2022/10/10 03:00:47;;;;;;;4.63;2.60;;;;;;;7.15;58.35;101065.34;5106225;28;20084;-30
2022/10/10 03:03:12;;;;;;;4.23;2.30;;;;;;;7.13;58.45;101060.91;5101239;28;20027;-29
2022/10/10 03:05:38;;;;;;;3.57;2.40;;;;;;;7.14;58.63;101057.47;5098418;28;20285;-30
2022/10/10 03:08:03;;;;;;;3.43;2.50;;;;;;;7.13;58.45;101055.69;5094964;28;20355;-30
2022/10/10 03:10:28;;;;;;;4.30;2.58;;;;;;;7.12;58.80;101048.69;5094401;28;20281;-29
2022/10/10 03:13:03;;;;;;;4.75;2.80;;;;;;;7.12;58.77;101048.69;5097281;28;20600;-30
2022/10/10 03:15:28;;;;;;;5.35;2.90;;;;;;;7.11;58.99;101044.31;5107006;28;20024;-30
2022/10/10 03:17:56;;;;;;;3.80;2.45;;;;;;;7.10;58.68;101038.16;5102879;28;20059;-30
2022/10/10 03:20:22;;;;;;;4.30;2.35;;;;;;;7.10;58.92;101043.41;5096649;28;20394;-30
2022/10/10 03:22:47;;;;;;;4.75;2.92;;;;;;;7.09;59.07;101022.41;5102357;28;20018;-30
2022/10/10 03:25:12;;;;;;;4.20;2.83;;;;;;;7.08;59.39;101026.78;5097375;28;20080;-30
2022/10/10 03:27:38;;;;;;;5.10;2.60;;;;;;;7.06;59.08;101016.28;5109762;28;20277;-30
2022/10/10 03:30:04;;;;;;;5.53;2.97;;;;;;;7.06;59.35;101011.03;5110277;28;20638;-30
2022/10/10 03:32:29;;;;;;;4.75;3.00;;;;;;;7.06;59.18;101015.38;5096878;28;20282;-30
2022/10/10 03:34:54;;;;;;;4.28;2.72;;;;;;;7.08;59.18;101010.16;5093171;28;20042;-30
2022/10/10 03:37:20;;;;;;;4.40;2.53;;;;;;;7.08;59.47;101012.78;5100827;28;20028;-30
2022/10/10 03:39:46;;;;;;;4.30;2.50;;;;;;;7.09;59.27;101009.28;5099880;28;20289;-30
2022/10/10 03:42:11;;;;;;;5.57;2.72;;;;;;;7.08;59.63;101005.81;5101387;27;20413;-30
2022/10/10 03:44:37;;;;;;;4.88;2.83;;;;;;;7.08;59.79;101003.19;5106982;28;20023;-30
2022/10/10 03:47:02;;;;;;;4.33;2.97;;;;;;;7.09;60.18;101002.31;5103145;28;20043;-30
2022/10/10 03:49:31;;;;;;;4.53;3.03;;;;;;;7.12;60.54;101006.72;5100655;28;20655;-30
2022/10/10 03:51:56;;;;;;;5.15;3.00;;;;;;;7.15;60.36;101009.38;5102459;28;20031;-30
2022/10/10 03:54:21;;;;;;;5.22;2.85;;;;;;;7.17;60.74;101005.03;5102098;28;20073;-30
2022/10/10 03:56:47;;;;;;;6.88;3.00;;;;;;;7.17;61.25;100990.16;5102784;28;20022;-30
2022/10/10 03:59:12;;;;;;;4.17;2.80;;;;;;;7.19;61.40;100998.03;5107237;28;20393;-30
2022/10/10 04:01:40;;;;;;;5.07;2.90;;;;;;;7.19;61.14;100995.41;5091186;28;20289;-30
2022/10/10 04:04:06;;;;;;;3.42;2.50;;;;;;;7.19;61.52;101000.66;5092570;28;20332;-30
2022/10/10 04:06:31;;;;;;;4.47;2.78;;;;;;;7.20;61.75;100997.16;5093227;28;20032;-30
2022/10/10 04:08:56;;;;;;;5.37;2.83;;;;;;;7.20;61.89;100994.53;5106452;28;20119;-30
2022/10/10 04:11:22;;;;;;;5.68;2.90;;;;;;;7.21;61.94;101001.56;5092819;28;20346;-30
2022/10/10 04:13:47;;;;;;;4.33;2.80;;;;;;;7.20;61.55;100991.91;5094545;28;20051;-30
2022/10/10 04:16:12;;;;;;;4.40;2.60;;;;;;;7.20;61.86;100994.53;5105763;28;20325;-30
2022/10/10 04:18:38;;;;;;;5.22;2.90;;;;;;;7.20;62.47;100984.06;5085470;28;20063;-30
2022/10/10 04:21:06;;;;;;;5.68;2.90;;;;;;;7.19;61.92;100982.31;5104576;28;20020;-30
2022/10/10 04:23:31;;;;;;;5.93;3.10;;;;;;;7.22;61.90;100986.69;5113215;28;20031;-30
2022/10/10 04:25:57;;;;;;;5.07;3.05;;;;;;;7.21;61.92;100990.19;5108437;28;20022;-30
2022/10/10 04:28:22;;;;;;;4.50;3.00;;;;;;;7.22;61.68;100986.69;5094480;28;20474;-30
2022/10/10 04:30:48;;;;;;;5.40;3.10;;;;;;;7.22;62.14;100992.81;5102116;28;20313;-30
2022/10/10 04:33:13;;;;;;;5.28;3.00;;;;;;;7.23;62.72;100984.09;5099238;28;20024;-30
2022/10/10 04:35:48;;;;;;;4.68;2.75;;;;;;;7.23;62.17;100980.59;5097699;28;20062;-30
2022/10/10 04:38:14;;;;;;;5.57;3.10;;;;;;;7.22;62.61;100971.84;5089251;28;20051;-30
2022/10/10 04:40:39;;;;;;;4.95;2.90;;;;;;;7.23;62.51;100972.72;5099269;28;20056;-30
2022/10/10 04:43:08;;;;;;;7.13;3.10;;;;;;;7.22;62.06;100961.34;5106841;28;20031;-30
2022/10/10 04:45:36;;;;;;;4.47;2.78;;;;;;;7.22;62.42;100961.34;5105913;28;20027;-30
2022/10/10 04:48:01;;;;;;;4.90;2.95;;;;;;;7.22;61.98;100961.34;5095744;28;20035;-30
2022/10/10 04:50:28;;;;;;;5.75;2.75;;;;;;;7.22;62.02;100965.72;5107471;28;20488;-30
2022/10/10 04:52:53;;;;;;;5.47;3.00;;;;;;;7.21;61.84;100958.72;5096105;28;20470;-30
2022/10/10 04:55:28;;;;;;;5.10;2.37;;;;;;;7.22;62.04;100960.47;5092872;28;20031;-30
2022/10/10 04:57:53;;;;;;;4.95;2.78;;;;;;;7.21;62.45;100954.34;5101634;28;20276;-30
2022/10/10 05:00:24;;;;;;;5.37;2.87;;;;;;;7.21;61.99;100956.97;5098594;28;20020;-30
2022/10/10 05:02:50;;;;;;;4.93;2.55;;;;;;;7.20;62.19;100952.56;5104721;28;20281;-30
2022/10/10 05:05:18;;;;;;;4.78;3.20;;;;;;;7.19;61.92;100949.09;5105059;28;20028;-30
2022/10/10 05:07:46;;;;;;;4.88;3.67;;;;;;;7.19;61.66;100943.84;5094863;28;20028;-30
2022/10/10 05:10:11;;;;;;;4.93;3.10;;;;;;;7.20;61.41;100952.56;5102066;28;20020;-30
2022/10/10 05:12:37;;;;;;;5.77;2.93;;;;;;;7.20;62.01;100949.94;5090932;28;20031;-30
2022/10/10 05:15:02;;;;;;;6.43;2.87;;;;;;;7.19;61.38;100940.31;5104144;28;20304;-30
2022/10/10 05:17:27;;;;;;;5.97;2.83;;;;;;;7.18;61.96;100944.69;5098749;28;21905;-30
2022/10/10 05:19:58;;;;;;;6.90;3.37;;;;;;;7.17;61.55;100937.69;5101299;28;20490;-30
2022/10/10 05:22:24;;;;;;;5.07;3.55;;;;;;;7.17;61.33;100942.94;5104205;28;20660;-30
2022/10/10 05:24:49;;;;;;;6.43;3.42;;;;;;;7.17;61.45;100949.94;5105696;28;20024;-30
2022/10/10 05:27:14;;;;;;;5.88;3.38;;;;;;;7.17;61.55;100942.06;5096915;28;20097;-30
2022/10/10 05:29:40;;;;;;;5.68;3.00;;;;;;;7.16;61.24;100945.53;5108018;28;20015;-30
2022/10/10 05:32:05;;;;;;;6.03;2.80;;;;;;;7.15;61.26;100941.16;5093760;28;20031;-30
2022/10/10 05:34:42;;;;;;;5.93;3.53;;;;;;;7.15;61.69;100930.66;5111836;28;20604;-30
2022/10/10 05:37:08;;;;;;;5.70;2.85;;;;;;;7.14;61.78;100934.16;5102805;28;20373;-30
2022/10/10 05:39:34;;;;;;;5.25;3.10;;;;;;;7.12;61.33;100928.00;5077619;28;20470;-30
2022/10/10 05:41:59;;;;;;;5.07;3.35;;;;;;;7.11;61.72;100931.50;5107476;28;20032;-30
2022/10/10 05:44:24;;;;;;;4.10;2.43;;;;;;;7.11;61.60;100936.75;5109843;28;20036;-30
2022/10/10 05:46:50;;;;;;;4.65;3.25;;;;;;;7.09;61.67;100927.97;5089854;28;20290;-30
2022/10/10 05:49:15;;;;;;;4.97;2.92;;;;;;;7.08;61.61;100934.09;5083627;28;20518;-30
2022/10/10 05:51:43;;;;;;;5.28;3.40;;;;;;;7.08;61.64;100927.13;5108361;28;20055;-30
2022/10/10 05:54:09;;;;;;;5.95;3.40;;;;;;;7.07;61.68;100925.34;5091287;28;20035;-30
2022/10/10 05:56:34;;;;;;;6.18;3.28;;;;;;;7.05;62.14;100921.84;5092618;28;20028;-30
2022/10/10 05:58:59;;;;;;;5.00;3.42;;;;;;;7.04;61.90;100926.19;5110287;28;20080;-30
2022/10/10 06:01:25;;;;;;;4.73;2.70;;;;;;;7.04;62.04;100931.44;5103827;28;20136;-30
2022/10/10 06:03:54;;;;;;;5.07;2.97;;;;;;;7.05;62.15;100935.84;5092945;28;20270;-30
2022/10/10 06:06:20;;;;;;;5.10;2.80;;;;;;;7.04;62.46;100935.81;5112018;28;20257;-30
2022/10/10 06:08:52;;;;;;;4.45;3.00;;;;;;;7.03;62.62;100931.41;5111994;28;20023;-30
2022/10/10 06:11:19;;;;;;;5.28;2.92;;;;;;;7.02;63.26;100925.31;5101628;28;20487;-30
2022/10/10 06:13:48;;;;;;;5.07;3.00;;;;;;;7.02;63.13;100924.44;5106032;28;20031;-30
2022/10/10 06:16:13;;;;;;;6.10;3.17;;;;;;;7.03;63.15;100931.41;5111381;28;20026;-30
2022/10/10 06:18:42;;;;;;;6.55;3.40;;;;;;;7.01;63.19;100931.41;5111057;28;20023;-30
2022/10/10 06:21:07;;;;;;;5.07;3.30;;;;;;;7.00;63.37;100926.16;5105074;28;20031;-30
2022/10/10 06:23:33;;;;;;;7.55;3.47;;;;;;;7.01;63.52;100935.78;5112067;28;20025;-30
2022/10/10 06:25:59;;;;;;;5.32;3.03;;;;;;;7.01;63.59;100931.41;5103272;28;20035;-30
2022/10/10 06:28:24;;;;;;;6.88;3.28;;;;;;;7.01;63.25;100928.78;5094609;28;20028;-30
2022/10/10 06:30:50;;;;;;;6.55;3.03;;;;;;;7.00;63.91;100932.28;5109593;28;20019;-30
2022/10/10 06:33:17;;;;;;;6.07;3.25;;;;;;;7.02;63.55;100937.53;5094629;28;20027;-30
2022/10/10 06:35:47;;;;;;;5.55;2.92;;;;;;;7.02;63.87;100943.69;5094918;28;20023;-30
2022/10/10 06:38:14;;;;;;;6.28;3.47;;;;;;;7.02;64.17;100943.69;5095109;28;20020;-30
2022/10/10 06:44:01;;;;;;;8.60;3.40;;;;;;;7.03;64.07;100944.53;5109054;28;20469;-30
2022/10/10 06:46:26;;;;;;;5.95;3.10;;;;;;;7.04;63.87;100947.19;5110650;28;20063;-30
2022/10/10 06:48:51;;;;;;;5.90;3.00;;;;;;;7.05;64.32;100956.81;5095029;28;20034;-30
2022/10/10 06:51:17;;;;;;;6.63;3.50;;;;;;;7.06;63.49;100950.72;5106375;28;20289;-30
2022/10/10 06:53:45;;;;;;;4.68;3.00;;;;;;;7.06;63.63;100955.97;5114948;28;20461;-30
2022/10/10 06:56:20;;;;;;;5.68;3.03;;;;;;;7.11;63.48;100955.13;5096662;28;20031;-30
2022/10/10 06:58:47;;;;;;;4.38;2.67;;;;;;;7.13;63.01;100950.75;5109936;28;20016;-30
2022/10/10 07:01:20;;;;;;;5.68;2.95;;;;;;;7.16;62.88;100942.91;5103578;28;20020;-30
2022/10/10 07:03:46;;;;;;;6.13;2.88;;;;;;;7.19;62.87;100953.44;5111708;28;20490;-30
2022/10/10 07:06:11;;;;;;;4.93;2.92;;;;;;;7.22;62.92;100948.22;5111699;28;20034;-30
2022/10/10 07:08:38;;;;;;;4.70;3.05;;;;;;;7.24;62.58;100949.09;5083879;28;20485;-30
2022/10/10 07:11:04;;;;;;;5.03;3.22;;;;;;;7.27;62.91;100954.38;5059568;28;20093;-30
2022/10/10 07:13:30;;;;;;;6.13;3.30;;;;;;;7.30;62.62;100948.28;5106214;28;20482;-30
2022/10/10 07:15:55;;;;;;;5.30;3.40;;;;;;;7.32;62.70;100950.09;5113603;28;20367;-30
2022/10/10 07:18:21;;;;;;;5.38;3.03;;;;;;;7.36;63.03;100953.59;5103590;28;20024;-30
2022/10/10 07:20:46;;;;;;;4.40;2.88;;;;;;;7.40;62.29;100957.16;5087367;28;20379;-30
2022/10/10 07:23:12;;;;;;;4.85;2.90;;;;;;;7.43;62.33;100949.28;5096153;28;20034;-30
2022/10/10 07:25:39;;;;;;;5.03;3.10;;;;;;;7.45;62.38;100952.81;5078782;28;20051;-30
2022/10/10 07:28:05;;;;;;;5.13;3.15;;;;;;;7.49;61.92;100938.84;5113868;28;20019;-30
2022/10/10 07:30:31;;;;;;;6.25;3.20;;;;;;;7.51;62.00;100942.38;5073747;28;20489;-30
2022/10/10 07:32:56;;;;;;;5.63;2.85;;;;;;;7.56;61.79;100943.28;5084188;28;20086;-30
2022/10/10 07:35:22;;;;;;;5.13;2.90;;;;;;;7.61;62.02;100938.06;5095164;28;20019;-30
2022/10/10 07:37:57;;;;;;;5.28;3.00;;;;;;;7.66;61.57;100949.47;5095299;28;20020;-30
2022/10/10 07:40:23;;;;;;;4.78;2.80;;;;;;;7.74;61.74;100948.66;5077030;28;20023;-30
2022/10/10 07:42:48;;;;;;;6.03;3.25;;;;;;;7.78;61.96;100956.56;5105365;28;20301;-30
2022/10/10 07:45:14;;;;;;;4.72;2.70;;;;;;;7.88;61.71;100951.38;5078023;28;20451;-30
2022/10/10 07:47:39;;;;;;;4.47;3.00;;;;;;;7.93;61.45;100944.38;5095368;28;20168;-30
2022/10/10 07:50:06;;;;;;;5.95;3.08;;;;;;;7.99;61.35;100949.69;5089575;28;20390;-30
2022/10/10 07:52:34;;;;;;;5.28;3.83;;;;;;;8.05;61.51;100940.97;5063636;28;20102;-30
2022/10/10 07:55:00;;;;;;;4.97;3.33;;;;;;;8.14;61.55;100942.75;5102491;28;20027;-30
2022/10/10 07:57:26;;;;;;;5.65;3.22;;;;;;;8.19;61.61;100951.53;5095144;28;20083;-30
2022/10/10 07:59:51;;;;;;;6.45;3.40;;;;;;;8.26;61.56;100947.19;5095426;28;20019;-30
2022/10/10 08:02:17;;;;;;;5.90;3.65;;;;;;;8.32;61.63;100950.75;5103037;28;20031;-30
2022/10/10 08:04:42;;;;;;;5.22;3.17;;;;;;;8.40;61.64;100949.91;5091027;28;20573;-30
2022/10/10 08:07:08;;;;;;;7.32;3.67;;;;;;;8.47;61.63;100946.41;5113416;28;20028;-30
2022/10/10 08:09:36;;;;;;;5.28;3.30;;;;;;;8.55;61.58;100943.84;5113437;28;20027;-30
2022/10/10 08:12:01;;;;;;;6.65;3.80;;;;;;;8.63;61.77;100930.75;5112299;28;20027;-30
2022/10/10 08:14:27;;;;;;;6.43;3.67;;;;;;;8.70;62.11;100932.50;5094133;28;20038;-30
2022/10/10 08:16:52;;;;;;;4.93;3.47;;;;;;;8.77;62.35;100934.25;5085905;28;20040;-30
2022/10/10 08:19:17;;;;;;;6.63;3.72;;;;;;;8.85;62.71;100927.28;5113087;28;20119;-30
2022/10/10 08:21:49;;;;;;;5.50;3.70;;;;;;;8.94;63.19;100923.78;5095239;28;20055;-30
2022/10/10 08:24:14;;;;;;;8.35;4.25;;;;;;;9.03;62.76;100919.44;5073410;28;20035;-30
2022/10/10 08:26:40;;;;;;;6.60;3.88;;;;;;;9.11;63.00;100917.69;5104366;28;20020;-30
2022/10/10 08:29:05;;;;;;;6.50;3.65;;;;;;;9.19;63.61;100905.41;5113075;28;20027;-30
2022/10/10 08:34:58;;;;;;;7.20;3.47;;;;;;;9.40;64.33;100905.41;5098983;28;20283;-30
2022/10/10 08:37:33;;;;;;;6.97;3.50;;;;;;;9.50;64.63;100907.13;5084483;28;20030;-30
2022/10/10 08:40:01;;;;;;;5.78;3.35;;;;;;;9.57;64.57;100906.25;5112369;28;20182;-30
2022/10/10 08:42:32;;;;;;;5.28;3.45;;;;;;;9.68;64.33;100897.47;5077871;28;20051;-30
2022/10/10 08:45:02;;;;;;;9.43;3.70;;;;;;;9.77;65.22;100892.16;5101310;28;20069;-30
2022/10/10 08:47:43;;;;;;;6.25;3.20;;;;;;;9.90;67.19;100902.69;5074542;28;20020;-30
2022/10/10 08:50:21;;;;;;;6.32;3.22;;;;;;;10.01;67.76;100893.00;5091883;28;20107;-30
2022/10/10 08:52:49;;;;;;;5.22;3.33;;;;;;;10.07;66.28;100884.19;5112040;28;20106;-30
2022/10/10 08:55:31;;;;;;;5.90;3.20;;;;;;;10.20;67.57;100882.41;5110872;28;20050;-30
2022/10/10 08:58:11;;;;;;;6.72;3.22;;;;;;;10.31;67.01;100890.25;5093358;28;20114;-30
2022/10/10 09:00:39;;;;;;;5.40;3.08;;;;;;;10.42;67.06;100882.28;5094090;28;20400;-30
2022/10/10 09:03:18;;;;;;;6.43;3.00;;;;;;;10.56;67.60;100877.84;5094438;28;20482;-30
2022/10/10 09:05:54;;;;;;;7.25;3.15;;;;;;;10.65;67.15;100885.72;5112885;28;20515;-30
2022/10/10 09:08:25;;;;;;;5.35;2.95;;;;;;;10.78;67.26;100877.72;5106728;28;20016;-30
2022/10/10 09:10:55;;;;;;;3.83;2.60;;;;;;;10.94;68.33;100880.25;5092583;28;20073;-30
2022/10/10 09:13:37;;;;;;;8.00;3.00;;;;;;;11.03;67.78;100874.88;5076713;28;20019;-30
2022/10/10 09:16:28;;;;;;;5.15;2.90;;;;;;;11.21;68.17;100884.44;5111192;28;20024;-30
2022/10/10 09:19:23;;;;;;;4.80;2.78;;;;;;;11.40;68.51;100884.25;5075197;28;20051;-30
2022/10/10 09:21:51;;;;;;;6.43;3.10;;;;;;;11.56;68.35;100866.50;5115090;27;20156;-29
2022/10/10 09:24:27;;;;;;;5.45;3.30;;;;;;;11.68;67.29;100881.38;5077972;28;20521;-29
2022/10/10 09:27:02;;;;;;;6.85;3.22;;;;;;;11.81;67.54;100884.75;5079270;28;20087;-29
2022/10/10 09:29:46;;;;;;;6.35;3.63;;;;;;;11.85;66.96;100875.91;5094366;28;20260;-30
2022/10/10 09:32:16;;;;;;;6.07;3.03;;;;;;;11.98;67.20;100873.09;5077033;28;20544;-30
2022/10/10 09:34:48;;;;;;;5.63;3.03;;;;;;;12.09;67.15;100859.78;5110277;28;20027;-30
2022/10/10 09:37:17;;;;;;;5.60;3.28;;;;;;;12.23;66.89;100862.25;5101512;28;20018;-30
2022/10/10 09:39:50;;;;;;;5.50;3.00;;;;;;;12.30;66.20;100855.97;5094110;28;20030;-30
2022/10/10 09:42:20;;;;;;;5.55;3.10;;;;;;;12.41;66.27;100856.72;5112279;28;20063;-30
2022/10/10 09:44:51;;;;;;;8.10;3.50;;;;;;;12.54;65.89;100861.84;5111726;28;20031;-30
2022/10/10 09:47:17;;;;;;;6.40;3.40;;;;;;;12.59;65.67;100860.00;5111750;28;20069;-30
2022/10/10 09:49:43;;;;;;;6.13;3.13;;;;;;;12.67;65.96;100860.75;5090678;28;20040;-30
2022/10/10 09:52:24;;;;;;;4.95;3.25;;;;;;;12.89;66.09;100857.78;5100849;28;20482;-30
2022/10/10 09:54:54;;;;;;;5.90;3.47;;;;;;;13.08;65.82;100852.22;5111587;28;20035;-30
2022/10/10 09:57:22;;;;;;;6.05;3.60;;;;;;;13.19;65.76;100855.53;5111920;28;20427;-30
2022/10/10 09:59:50;;;;;;;8.00;3.45;;;;;;;13.24;65.16;100850.16;5093747;28;20062;-29
2022/10/10 10:02:25;;;;;;;5.97;3.47;;;;;;;13.39;65.52;100856.09;5114085;28;20047;-29
2022/10/10 10:04:53;;;;;;;6.88;3.80;;;;;;;13.50;64.77;100848.84;5096653;28;20027;-30
2022/10/10 10:07:35;;;;;;;6.78;3.70;;;;;;;13.62;64.93;100847.75;5094490;28;20038;-30
2022/10/10 10:10:18;;;;;;;7.25;3.78;;;;;;;13.68;64.35;100845.00;5098304;28;20066;-30
2022/10/10 10:12:44;;;;;;;6.93;3.50;;;;;;;13.78;64.53;100843.03;5116035;28;20024;-29
2022/10/10 10:15:36;;;;;;;6.75;3.78;;;;;;;13.90;64.21;100846.34;5080373;28;20104;-29
2022/10/10 10:18:08;;;;;;;7.38;3.53;;;;;;;13.94;63.81;100846.22;5071537;28;20473;-29
2022/10/10 10:20:42;;;;;;;6.47;3.65;;;;;;;14.05;64.12;100851.34;5107895;28;20032;-29
2022/10/10 10:23:30;;;;;;;8.07;3.78;;;;;;;14.20;64.25;100865.16;5095242;28;20551;-30
2022/10/10 10:26:00;;;;;;;7.32;3.47;;;;;;;14.33;64.14;100861.34;5094993;28;20103;-30
2022/10/10 10:28:26;;;;;;;6.15;3.50;;;;;;;14.47;63.98;100863.69;5093618;28;20027;-30
2022/10/10 10:30:56;;;;;;;6.38;3.53;;;;;;;14.57;63.65;100863.50;5096337;28;20035;-29
2022/10/10 10:33:37;;;;;;;7.60;3.85;;;;;;;14.65;63.40;100856.22;5102325;28;20036;-29
2022/10/10 10:36:14;;;;;;;6.13;3.50;;;;;;;14.74;63.28;100850.69;5086333;28;20027;-29
2022/10/10 10:39:03;;;;;;;6.82;3.58;;;;;;;14.84;62.87;100850.50;5103308;28;20077;-29
2022/10/10 10:41:37;;;;;;;6.90;3.30;;;;;;;14.94;62.84;100849.34;5102487;28;20035;-29
2022/10/10 10:44:33;;;;;;;7.75;3.80;;;;;;;15.01;62.52;100842.97;5096796;28;20539;-29
2022/10/10 10:47:24;;;;;;;5.95;3.22;;;;;;;15.18;62.56;100844.38;5115083;28;20024;-30
2022/10/10 10:50:30;;;;;;;6.05;3.50;;;;;;;15.24;61.96;100843.34;5111257;28;20091;-29
2022/10/10 10:52:59;;;;;;;6.50;3.33;;;;;;;15.34;61.92;100838.66;5096667;28;20027;-29
2022/10/10 10:55:31;;;;;;;4.78;3.15;;;;;;;15.46;61.53;100837.44;5096364;28;20047;-30
2022/10/10 10:58:11;;;;;;;6.68;3.45;;;;;;;15.55;61.60;100831.00;5114983;28;20023;-29
2022/10/10 11:00:56;;;;;;;6.40;3.55;;;;;;;15.70;61.23;100814.63;5097089;28;20451;-29
2022/10/10 11:03:46;;;;;;;6.00;2.88;;;;;;;15.77;61.17;100820.63;5090461;28;20056;-30
2022/10/10 11:06:57;;;;;;;6.32;3.58;;;;;;;15.89;61.02;100825.59;5098936;28;20035;-30
2022/10/10 11:09:29;;;;;;;5.85;3.50;;;;;;;15.98;60.55;100826.28;5062971;28;20602;-30
2022/10/10 11:12:07;;;;;;;5.18;3.38;;;;;;;16.03;60.36;100825.22;5113738;28;20371;-30
2022/10/10 11:14:39;;;;;;;5.85;3.42;;;;;;;16.07;60.80;100823.34;5094467;28;20020;-30
2022/10/10 11:17:18;;;;;;;5.72;3.15;;;;;;;16.13;60.83;100823.16;5094607;28;20387;-30
2022/10/10 11:19:55;;;;;;;5.22;3.33;;;;;;;16.21;60.47;100812.28;5087053;28;20034;-29
2022/10/10 11:22:25;;;;;;;5.88;3.35;;;;;;;16.24;60.14;100819.31;5096537;28;20035;-30
2022/10/10 11:25:00;;;;;;;5.05;3.13;;;;;;;16.32;60.40;100829.72;5096273;28;20023;-30
2022/10/10 11:27:41;;;;;;;7.30;3.20;;;;;;;16.41;60.01;100824.13;5096300;28;20424;-30
2022/10/10 11:30:15;;;;;;;6.35;2.70;;;;;;;16.48;59.83;100819.47;5113974;28;20040;-30
2022/10/10 11:32:50;;;;;;;6.00;3.28;;;;;;;16.55;60.10;100819.19;5111623;28;20043;-30
2022/10/10 11:35:43;;;;;;;5.10;3.30;;;;;;;16.68;59.42;100811.69;5081079;28;20445;-30
2022/10/10 11:38:14;;;;;;;5.68;3.33;;;;;;;16.73;59.42;100816.88;5075935;28;20390;-30
2022/10/10 11:40:59;;;;;;;4.88;3.33;;;;;;;16.84;59.32;100813.00;5075543;28;20546;-30
2022/10/10 11:43:29;;;;;;;5.70;3.10;;;;;;;16.93;59.23;100810.91;5064897;28;20027;-30
2022/10/10 11:46:00;;;;;;;5.90;3.15;;;;;;;17.04;58.95;100823.84;5112902;28;20020;-30
2022/10/10 11:48:34;;;;;;;5.93;3.35;;;;;;;17.10;58.82;100819.28;5082008;28;20471;-30
2022/10/10 11:51:15;;;;;;;7.03;3.58;;;;;;;17.18;59.10;100827.88;5102331;28;20582;-30
2022/10/10 11:53:43;;;;;;;4.25;3.03;;;;;;;17.21;58.61;100806.47;5092541;28;20044;-30